British Virtual Airways Airport Information Service

Austin Bergstrom International Airport

ICAO: KAUS Country: United States
Latitude: 30.1945 Longitude: -97.6699
Latest Arrival : BAW191(1) (EGLL-KAUS) Latest Departure : BAW190 (KAUS-EGLL)


WX CaptureLIVE
Data provided by noaa.gov | Fetched at 07:13:55

METAR : KAUS 050653Z 36010KT 5SM BR OVC003 11/10 A3003 RMK AO2 SLP170 T01110100

TAF : KAUS 050533Z 0506/0612 01006KT P6SM OVC009 FM050800 01005KT 3SM BR OVC007 FM051700 05006KT P6SM BKN015 FM052100 09006KT P6SM BKN040 FM060900 16005KT 3SM BR OVC015


Runway Data for KAUS
Data provided by openaviationdata.com

Runway ID Mag Var Hdg Length Elevation Surface ILS Freq ILS Id ILS Slope
17L 6 172° 9022 ft 494 ft Concrete 110.5 IVNK 3
17R 6 172° 12278 ft 494 ft Concrete 110.3 IGFQ 3
35L 6 352° 12278 ft 494 ft Concrete 110.3 IBSM 3
35R 6 352° 9022 ft 494 ft Concrete 110.5 IHCE 3

Austin Bergstrom International Airport, United States
Use only for reference purposes



Not for navigational purposes.